Time;durP1;ratioP1;P1;durP2;ratioP2;P2;SDS_P1;SDS_P2;PMS_P1;PMS_P2;Temp;Humidity;BMP_temperature;BMP_pressure;BME280_temperature;BME280_humidity;BME280_pressure;Samples;Min_cycle;Max_cycle;Signal;HPM_P1;HPM_P2
2022/11/25 00:01:28;;;;;;;17.80;3.05;;;11.40;99.90;;;;;;5058421;28;20052;-62
2022/11/25 00:03:55;;;;;;;17.10;3.10;;;11.40;99.90;;;;;;5057516;28;20033;-64
2022/11/25 00:06:29;;;;;;;17.73;2.75;;;11.30;99.90;;;;;;5057658;28;20040;-62
2022/11/25 00:09:00;;;;;;;11.73;2.28;;;11.20;99.90;;;;;;5058384;28;20351;-63
2022/11/25 00:11:26;;;;;;;12.52;2.22;;;11.20;99.90;;;;;;5058403;28;20086;-60
2022/11/25 00:13:53;;;;;;;12.95;2.40;;;11.20;99.90;;;;;;5057439;28;20075;-62
2022/11/25 00:16:20;;;;;;;17.77;3.38;;;11.20;99.90;;;;;;5057505;28;20098;-61
2022/11/25 00:18:48;;;;;;;12.20;2.65;;;11.20;99.90;;;;;;5057488;28;20068;-62
2022/11/25 00:21:17;;;;;;;13.48;2.42;;;11.20;99.90;;;;;;5040134;28;20431;-63
2022/11/25 00:23:43;;;;;;;15.27;2.53;;;11.30;99.90;;;;;;5058013;28;20111;-64
2022/11/25 00:26:14;;;;;;;15.13;2.92;;;11.40;99.90;;;;;;5058002;28;20017;-63
2022/11/25 00:28:43;;;;;;;16.05;2.65;;;11.40;99.90;;;;;;5057931;28;20388;-66
2022/11/25 00:31:18;;;;;;;18.90;2.70;;;11.40;99.90;;;;;;5057084;28;20021;-65
2022/11/25 00:33:44;;;;;;;12.48;2.25;;;11.40;99.90;;;;;;5057877;28;20243;-65
2022/11/25 00:36:19;;;;;;;12.57;2.90;;;11.40;99.90;;;;;;5057013;28;20131;-66
2022/11/25 00:38:45;;;;;;;11.02;2.00;;;11.30;99.90;;;;;;5057023;28;20044;-64
2022/11/25 00:46:40;;;;;;;8.90;1.63;;;11.20;99.90;;;;;;5056799;28;20040;-65
2022/11/25 00:49:06;;;;;;;10.30;2.00;;;11.20;99.90;;;;;;5056711;28;20036;-65
2022/11/25 00:51:32;;;;;;;9.63;1.55;;;11.20;99.90;;;;;;5056608;28;20305;-64
2022/11/25 00:53:58;;;;;;;10.90;2.25;;;11.20;99.90;;;;;;5056746;28;20304;-64
2022/11/25 00:56:24;;;;;;;8.90;2.10;;;11.20;99.90;;;;;;5040021;28;20052;-64
2022/11/25 00:58:51;;;;;;;8.57;1.65;;;11.30;99.90;;;;;;5056693;28;20372;-64
2022/11/25 01:01:17;;;;;;;5.97;1.30;;;11.20;99.90;;;;;;5023743;28;20111;-63
2022/11/25 01:03:43;;;;;;;7.18;1.60;;;11.00;99.90;;;;;;5057058;28;20116;-63
2022/11/25 01:06:10;;;;;;;5.03;0.90;;;10.90;99.90;;;;;;5057080;28;20076;-63
2022/11/25 01:08:37;;;;;;;6.80;1.17;;;10.80;99.90;;;;;;5039899;28;20036;-62
2022/11/25 01:11:11;;;;;;;5.20;0.98;;;10.60;99.90;;;;;;5056428;28;20035;-63
2022/11/25 01:13:38;;;;;;;3.75;0.88;;;10.50;99.90;;;;;;5056494;28;20087;-62
2022/11/25 01:16:06;;;;;;;3.10;0.82;;;10.50;99.90;;;;;;5057020;28;20031;-62
2022/11/25 01:18:33;;;;;;;6.15;1.20;;;10.50;99.90;;;;;;5057128;28;20327;-63
2022/11/25 01:21:06;;;;;;;5.13;1.00;;;10.30;99.90;;;;;;5056346;28;20021;-64
2022/11/25 01:23:32;;;;;;;5.43;1.08;;;10.20;99.90;;;;;;5056266;28;20036;-63
2022/11/25 01:26:04;;;;;;;3.75;0.77;;;10.10;99.90;;;;;;5056941;28;20120;-62
2022/11/25 01:28:30;;;;;;;4.45;0.90;;;10.00;99.90;;;;;;5056267;28;20086;-64
2022/11/25 01:31:09;;;;;;;3.55;0.80;;;9.90;99.90;;;;;;5056535;28;20029;-62
2022/11/25 01:33:36;;;;;;;3.33;0.88;;;9.90;99.90;;;;;;5055890;28;20032;-62
2022/11/25 01:36:07;;;;;;;2.85;1.02;;;9.80;99.90;;;;;;5056222;28;20393;-64
2022/11/25 01:38:33;;;;;;;3.93;1.00;;;9.70;99.90;;;;;;5056012;28;20032;-62
2022/11/25 01:41:00;;;;;;;3.08;0.90;;;9.60;99.90;;;;;;5039437;28;20124;-61
2022/11/25 01:43:27;;;;;;;4.47;0.93;;;9.50;99.90;;;;;;5056013;28;20076;-63
2022/11/25 01:46:17;;;;;;;3.28;0.60;;;9.50;99.90;;;;;;5039415;28;20111;-63
2022/11/25 01:48:55;;;;;;;3.20;0.63;;;9.40;99.90;;;;;;5056034;28;20029;-62
2022/11/25 01:51:28;;;;;;;3.58;0.70;;;9.30;99.90;;;;;;5056045;28;20025;-64
2022/11/25 01:53:58;;;;;;;3.40;0.55;;;9.30;99.90;;;;;;5056814;28;20044;-63
2022/11/25 01:56:25;;;;;;;2.03;0.65;;;9.30;99.90;;;;;;5056717;28;20056;-62
2022/11/25 01:58:52;;;;;;;4.78;0.68;;;9.30;99.90;;;;;;5055918;28;20086;-62
2022/11/25 02:01:17;;;;;;;2.97;0.60;;;9.30;99.90;;;;;;5056006;28;20033;-62
2022/11/25 02:03:47;;;;;;;3.03;0.60;;;9.30;99.90;;;;;;5055844;28;20147;-64
2022/11/25 02:06:24;;;;;;;3.85;0.50;;;9.30;99.90;;;;;;5056640;28;20304;-62
2022/11/25 02:08:54;;;;;;;1.67;0.38;;;9.30;99.90;;;;;;5056719;28;20025;-62
2022/11/25 02:11:21;;;;;;;2.03;0.47;;;9.30;99.90;;;;;;5055806;28;20071;-62
2022/11/25 02:13:50;;;;;;;4.07;0.70;;;9.30;99.90;;;;;;5055836;28;20036;-63
2022/11/25 02:16:16;;;;;;;4.70;0.68;;;9.30;99.90;;;;;;5055834;28;20048;-62
2022/11/25 02:18:41;;;;;;;1.67;0.57;;;9.30;99.90;;;;;;5039327;28;20033;-62
2022/11/25 02:21:08;;;;;;;3.33;0.60;;;9.30;99.90;;;;;;5056480;28;20112;-62
2022/11/25 02:24:02;;;;;;;3.28;0.43;;;9.30;99.90;;;;;;5039185;28;20106;-63
2022/11/25 02:26:29;;;;;;;3.08;0.57;;;9.30;99.90;;;;;;5056474;28;20029;-63
2022/11/25 02:28:56;;;;;;;3.15;0.50;;;9.40;99.90;;;;;;5055562;28;20087;-63
2022/11/25 02:31:22;;;;;;;3.00;0.45;;;9.40;99.90;;;;;;5055694;28;20028;-63
2022/11/25 02:33:48;;;;;;;1.95;0.57;;;9.40;99.90;;;;;;5039047;28;20037;-62
2022/11/25 02:36:18;;;;;;;2.72;0.43;;;9.30;99.90;;;;;;5039040;28;20051;-62
2022/11/25 02:38:52;;;;;;;2.30;0.40;;;9.30;99.90;;;;;;5056314;28;20029;-63
2022/11/25 02:41:39;;;;;;;2.03;0.60;;;9.30;99.90;;;;;;5055578;28;20332;-62
2022/11/25 02:44:06;;;;;;;1.70;0.50;;;9.30;99.90;;;;;;5055951;28;20409;-63
2022/11/25 02:46:33;;;;;;;3.70;0.38;;;9.20;99.90;;;;;;5042615;28;20458;-62
2022/11/25 02:49:02;;;;;;;2.50;0.50;;;9.20;99.90;;;;;;5059981;28;20025;-62
2022/11/25 02:51:29;;;;;;;2.38;0.32;;;9.10;99.90;;;;;;5042519;28;20025;-63
2022/11/25 02:53:58;;;;;;;1.88;0.60;;;9.10;99.90;;;;;;5059095;28;20040;-63
2022/11/25 02:56:28;;;;;;;1.80;0.30;;;9.10;99.90;;;;;;5042652;28;20028;-63
2022/11/25 02:58:54;;;;;;;2.28;0.60;;;9.00;99.90;;;;;;5059728;28;20025;-63
2022/11/25 03:01:20;;;;;;;1.10;0.40;;;9.00;99.90;;;;;;5058931;28;20120;-65
2022/11/25 03:03:48;;;;;;;4.95;0.45;;;9.00;99.90;;;;;;5058457;28;20086;-63
2022/11/25 03:06:14;;;;;;;2.47;0.55;;;9.00;99.90;;;;;;5058755;28;20331;-63
2022/11/25 03:08:40;;;;;;;3.83;0.60;;;8.90;99.90;;;;;;5058769;28;20017;-63
2022/11/25 03:11:09;;;;;;;2.70;0.60;;;8.90;99.90;;;;;;5058676;28;20029;-63
2022/11/25 03:13:35;;;;;;;0.38;0.30;;;8.80;99.90;;;;;;5042168;28;20036;-63
2022/11/25 03:16:02;;;;;;;2.83;0.60;;;8.80;99.90;;;;;;5059449;28;20324;-62
2022/11/25 03:18:28;;;;;;;1.85;0.50;;;8.70;99.90;;;;;;5058623;28;20040;-64
2022/11/25 03:20:54;;;;;;;2.33;0.50;;;8.70;99.90;;;;;;5059338;28;20028;-63
2022/11/25 03:23:23;;;;;;;1.95;0.45;;;8.70;99.90;;;;;;5058393;28;20029;-64
2022/11/25 03:25:52;;;;;;;2.75;0.50;;;8.70;99.90;;;;;;5042415;28;20043;-64
2022/11/25 03:28:18;;;;;;;3.13;0.50;;;8.60;99.90;;;;;;5041853;28;20040;-64
2022/11/25 03:30:44;;;;;;;2.75;0.57;;;8.60;99.90;;;;;;5059652;28;20277;-63
2022/11/25 03:33:10;;;;;;;3.33;0.80;;;8.60;99.90;;;;;;5058248;28;20036;-63
2022/11/25 03:35:36;;;;;;;2.95;0.60;;;8.60;99.90;;;;;;5058443;28;20029;-64
2022/11/25 03:38:03;;;;;;;3.35;0.75;;;8.70;99.90;;;;;;5041782;28;20037;-63
2022/11/25 03:40:32;;;;;;;2.33;0.65;;;8.70;99.90;;;;;;5058309;28;20308;-63
2022/11/25 03:42:58;;;;;;;4.80;0.85;;;8.70;99.90;;;;;;5041652;28;20090;-63
2022/11/25 03:45:23;;;;;;;2.95;0.70;;;8.70;99.90;;;;;;5058006;28;20098;-64
2022/11/25 03:47:49;;;;;;;5.47;1.00;;;8.70;99.90;;;;;;5041414;28;20075;-64
2022/11/25 03:50:15;;;;;;;3.53;0.77;;;8.60;99.90;;;;;;5057849;28;20032;-65
2022/11/25 03:52:43;;;;;;;3.20;1.33;;;8.60;99.90;;;;;;5025333;28;20392;-65
2022/11/25 03:55:11;;;;;;;6.28;1.17;;;8.60;99.90;;;;;;5057940;28;20308;-67
2022/11/25 03:57:38;;;;;;;4.90;0.90;;;8.60;99.90;;;;;;5057012;28;20359;-66
2022/11/25 04:00:06;;;;;;;3.67;0.90;;;8.60;99.90;;;;;;5057873;28;20119;-66
2022/11/25 04:02:43;;;;;;;4.97;0.90;;;8.60;99.90;;;;;;5058542;28;20404;-65
2022/11/25 04:05:09;;;;;;;4.95;1.10;;;8.60;99.90;;;;;;5041046;28;20424;-64
2022/11/25 04:07:35;;;;;;;4.53;1.27;;;8.50;99.90;;;;;;5041114;28;20304;-64
2022/11/25 04:10:03;;;;;;;7.30;1.98;;;8.50;99.90;;;;;;5057681;28;20032;-67
2022/11/25 04:12:46;;;;;;;6.85;1.52;;;8.50;99.90;;;;;;5057577;28;20052;-65
2022/11/25 04:15:17;;;;;;;7.53;1.30;;;8.50;99.90;;;;;;5057636;28;20120;-66
2022/11/25 04:17:45;;;;;;;5.95;1.45;;;8.50;99.90;;;;;;5057495;28;20037;-65
2022/11/25 04:20:12;;;;;;;5.20;1.50;;;8.50;99.90;;;;;;5057587;28;20033;-66
2022/11/25 04:22:39;;;;;;;5.25;1.52;;;8.50;99.90;;;;;;5040966;28;20044;-66
2022/11/25 04:25:06;;;;;;;4.53;1.30;;;8.50;99.90;;;;;;5024537;28;20069;-65
2022/11/25 04:27:32;;;;;;;6.40;1.40;;;8.50;99.90;;;;;;5057407;28;20324;-64
2022/11/25 04:29:58;;;;;;;5.88;1.45;;;8.50;99.90;;;;;;5040747;28;20033;-65
2022/11/25 04:32:24;;;;;;;6.22;1.15;;;8.50;99.90;;;;;;5057188;28;20033;-65
2022/11/25 04:34:50;;;;;;;6.85;1.25;;;8.50;99.90;;;;;;5024255;28;20039;-66
2022/11/25 04:37:17;;;;;;;6.63;1.60;;;8.60;99.90;;;;;;5057160;28;20057;-65
2022/11/25 04:39:43;;;;;;;8.23;1.65;;;8.60;99.90;;;;;;5024199;28;20037;-65
2022/11/25 04:42:31;;;;;;;5.55;1.52;;;8.60;99.90;;;;;;5057127;28;20044;-66
2022/11/25 04:44:58;;;;;;;6.72;1.80;;;8.60;99.90;;;;;;5040881;28;20025;-66
2022/11/25 04:47:25;;;;;;;10.50;1.67;;;8.60;99.90;;;;;;5056904;28;20060;-66
2022/11/25 04:49:51;;;;;;;8.50;1.80;;;8.70;99.90;;;;;;5056886;28;20348;-65
2022/11/25 04:52:18;;;;;;;7.78;1.83;;;8.70;99.90;;;;;;5056798;28;20021;-65
2022/11/25 04:54:43;;;;;;;25.92;14.65;;;8.70;99.90;;;;;;5040299;28;20037;-66
2022/11/25 04:57:13;;;;;;;5.97;1.58;;;8.80;99.90;;;;;;5023290;28;20032;-63
2022/11/25 04:59:41;;;;;;;7.90;1.92;;;8.80;99.90;;;;;;5040466;28;20083;-63
2022/11/25 05:02:15;;;;;;;9.95;1.92;;;8.80;99.90;;;;;;5056492;28;20032;-63
2022/11/25 05:04:45;;;;;;;3.90;1.40;;;8.80;99.90;;;;;;5057479;28;20052;-63
2022/11/25 05:07:13;;;;;;;7.70;2.00;;;8.80;99.90;;;;;;5056400;28;20065;-63
2022/11/25 05:09:39;;;;;;;9.10;1.90;;;8.80;99.90;;;;;;5056495;28;20083;-63
2022/11/25 05:12:19;;;;;;;10.27;1.90;;;8.80;99.90;;;;;;5056572;28;20056;-63
2022/11/25 05:14:45;;;;;;;8.43;1.88;;;8.80;99.90;;;;;;5040024;28;20103;-63
2022/11/25 05:17:20;;;;;;;7.88;2.08;;;8.80;99.90;;;;;;5056275;28;20190;-64
2022/11/25 05:19:46;;;;;;;10.80;2.10;;;8.80;99.90;;;;;;5056625;28;20040;-64
2022/11/25 05:22:16;;;;;;;12.77;2.03;;;8.80;99.90;;;;;;5056131;28;20093;-63
2022/11/25 05:24:43;;;;;;;8.32;1.85;;;8.90;99.90;;;;;;5039935;28;20021;-64
2022/11/25 05:27:10;;;;;;;3.30;1.40;;;8.80;99.90;;;;;;5056221;28;20100;-64
2022/11/25 05:29:36;;;;;;;6.28;1.65;;;8.80;99.90;;;;;;5056891;28;20021;-64
2022/11/25 05:32:04;;;;;;;7.65;1.63;;;8.80;99.90;;;;;;5039613;28;20029;-63
2022/11/25 05:34:30;;;;;;;8.35;1.95;;;8.70;99.90;;;;;;5039582;28;20037;-63
2022/11/25 05:36:57;;;;;;;6.97;2.15;;;8.70;99.90;;;;;;5056780;28;20029;-64
2022/11/25 05:39:23;;;;;;;5.85;1.80;;;8.70;99.90;;;;;;5056181;28;20048;-62
2022/11/25 05:42:07;;;;;;;9.07;2.05;;;8.70;99.90;;;;;;5057596;28;20036;-64
2022/11/25 05:44:33;;;;;;;9.77;2.70;;;8.70;99.90;;;;;;5056065;28;20029;-63
2022/11/25 05:46:59;;;;;;;9.80;2.40;;;8.70;99.90;;;;;;5055978;28;20154;-63
2022/11/25 05:49:25;;;;;;;8.80;2.55;;;8.70;99.90;;;;;;5056037;28;20114;-62
2022/11/25 05:51:51;;;;;;;11.10;2.65;;;8.60;99.90;;;;;;5039421;28;20064;-65
2022/11/25 05:54:19;;;;;;;7.53;1.90;;;8.60;99.90;;;;;;5039705;28;20124;-63
2022/11/25 05:56:45;;;;;;;7.82;1.92;;;8.60;99.90;;;;;;5039345;28;20364;-62
2022/11/25 05:59:30;;;;;;;8.68;2.22;;;8.60;99.90;;;;;;5056706;28;20051;-63
2022/11/25 06:02:05;;;;;;;7.50;1.90;;;8.60;99.90;;;;;;5055711;28;20125;-62
2022/11/25 06:04:31;;;;;;;8.93;1.98;;;8.60;99.90;;;;;;5056099;28;20056;-63
2022/11/25 06:06:57;;;;;;;7.95;2.10;;;8.50;99.90;;;;;;5055681;28;20397;-64
2022/11/25 06:09:23;;;;;;;10.23;2.25;;;8.40;99.90;;;;;;5039247;28;20304;-63
2022/11/25 06:11:50;;;;;;;7.88;2.13;;;8.50;99.90;;;;;;5039232;28;20029;-63
2022/11/25 06:14:17;;;;;;;6.30;1.95;;;8.50;99.90;;;;;;5055825;28;20045;-63
2022/11/25 06:16:43;;;;;;;6.97;2.00;;;8.50;99.90;;;;;;5055610;28;20036;-63
2022/11/25 06:19:20;;;;;;;7.90;2.38;;;8.50;99.90;;;;;;5056320;28;20029;-64
2022/11/25 06:21:46;;;;;;;6.80;1.88;;;8.40;99.90;;;;;;5060249;28;20040;-64
2022/11/25 06:24:12;;;;;;;11.45;2.40;;;8.40;99.90;;;;;;5042935;28;20033;-63
2022/11/25 06:26:40;;;;;;;6.22;2.00;;;8.40;99.90;;;;;;5059440;28;20040;-64
2022/11/25 06:29:06;;;;;;;7.90;2.10;;;8.30;99.90;;;;;;5042905;28;20404;-63
2022/11/25 06:31:31;;;;;;;6.57;1.85;;;8.30;99.90;;;;;;5042941;28;20120;-62
2022/11/25 06:34:16;;;;;;;12.25;2.53;;;8.40;99.90;;;;;;5060498;28;20068;-62
2022/11/25 06:36:42;;;;;;;8.00;1.80;;;8.30;99.90;;;;;;5042643;28;20323;-62
2022/11/25 06:39:08;;;;;;;6.68;1.88;;;8.30;99.90;;;;;;5042755;28;20434;-63
2022/11/25 06:41:34;;;;;;;9.60;1.92;;;8.30;99.90;;;;;;5060438;28;20043;-63
2022/11/25 06:43:59;;;;;;;9.32;1.90;;;8.30;99.90;;;;;;5059259;28;20033;-65
2022/11/25 06:46:26;;;;;;;6.38;1.70;;;8.20;99.90;;;;;;5042746;28;20025;-63
2022/11/25 06:48:52;;;;;;;7.20;1.92;;;8.20;99.90;;;;;;5059884;28;20113;-63
2022/11/25 06:51:18;;;;;;;11.18;1.88;;;8.20;99.90;;;;;;5059852;28;20029;-63
2022/11/25 06:53:44;;;;;;;8.25;2.00;;;8.20;99.90;;;;;;5059079;28;20094;-63
2022/11/25 06:56:13;;;;;;;7.60;2.13;;;8.20;99.90;;;;;;5042447;28;20045;-62
2022/11/25 06:58:40;;;;;;;9.07;2.20;;;8.20;99.90;;;;;;5059685;28;20036;-62
2022/11/25 07:01:18;;;;;;;13.32;1.83;;;8.20;99.90;;;;;;5058873;28;20109;-63
2022/11/25 07:03:46;;;;;;;7.95;1.92;;;8.20;99.90;;;;;;5058769;28;20029;-65
2022/11/25 07:06:13;;;;;;;7.75;2.17;;;8.10;99.90;;;;;;5059193;28;20048;-63
2022/11/25 07:08:40;;;;;;;10.45;2.55;;;8.20;99.90;;;;;;5059505;28;20029;-63
2022/11/25 07:11:11;;;;;;;5.55;2.13;;;8.10;99.90;;;;;;5058639;28;20120;-64
2022/11/25 07:13:37;;;;;;;9.30;2.40;;;8.10;99.90;;;;;;5059302;28;20040;-63
2022/11/25 07:16:05;;;;;;;7.53;2.50;;;8.10;99.90;;;;;;5059428;28;20127;-61
2022/11/25 07:18:36;;;;;;;7.57;2.20;;;8.10;99.90;;;;;;5058449;28;20033;-63
2022/11/25 07:21:13;;;;;;;6.80;1.90;;;8.10;99.90;;;;;;5059418;28;20024;-64
2022/11/25 07:23:39;;;;;;;10.70;2.45;;;8.20;99.90;;;;;;5059036;28;20028;-63
2022/11/25 07:26:08;;;;;;;8.60;2.03;;;8.10;99.90;;;;;;5058929;28;20396;-63
2022/11/25 07:28:35;;;;;;;9.68;2.20;;;8.10;99.90;;;;;;5059061;28;20040;-63
2022/11/25 07:31:22;;;;;;;6.40;2.40;;;8.10;99.90;;;;;;5057915;28;20104;-62
2022/11/25 07:33:52;;;;;;;10.30;2.63;;;8.30;99.90;;;;;;5058113;28;20102;-63
2022/11/25 07:36:18;;;;;;;8.95;2.08;;;8.30;99.90;;;;;;5058153;28;20040;-63
2022/11/25 07:38:43;;;;;;;10.35;2.95;;;8.30;99.90;;;;;;5058165;28;20036;-66
2022/11/25 07:41:15;;;;;;;9.27;2.30;;;8.30;99.90;;;;;;5058206;28;20400;-64
2022/11/25 07:43:44;;;;;;;10.18;2.42;;;8.30;99.90;;;;;;5041386;28;20397;-66
2022/11/25 07:46:13;;;;;;;9.80;2.88;;;8.30;99.90;;;;;;5042062;28;20048;-64
2022/11/25 07:48:40;;;;;;;12.07;3.00;;;8.30;99.90;;;;;;5058766;28;20112;-64
2022/11/25 07:51:17;;;;;;;10.02;2.35;;;8.30;99.90;;;;;;5058779;28;20029;-63
2022/11/25 07:53:44;;;;;;;9.65;2.75;;;8.30;99.90;;;;;;5041301;28;20036;-64
2022/11/25 07:56:10;;;;;;;11.65;3.03;;;8.30;99.90;;;;;;5058055;28;20124;-64
2022/11/25 07:58:36;;;;;;;7.53;2.60;;;8.20;99.90;;;;;;5041244;28;20069;-63
2022/11/25 08:01:06;;;;;;;12.00;2.88;;;8.20;99.90;;;;;;5058590;28;20079;-64
2022/11/25 08:03:34;;;;;;;12.00;3.17;;;8.30;99.90;;;;;;5058456;28;20045;-64
2022/11/25 08:06:05;;;;;;;11.00;2.88;;;8.30;99.90;;;;;;5058379;28;20047;-64
2022/11/25 08:08:31;;;;;;;12.82;3.00;;;8.40;99.90;;;;;;5058474;28;20035;-63
2022/11/25 08:10:57;;;;;;;10.48;3.05;;;8.50;99.90;;;;;;5041078;28;20396;-63
2022/11/25 08:13:23;;;;;;;11.13;2.78;;;8.50;99.90;;;;;;5058342;28;20113;-63
2022/11/25 08:15:49;;;;;;;11.32;2.58;;;8.60;99.90;;;;;;5058410;28;20157;-63
2022/11/25 08:18:15;;;;;;;9.20;2.70;;;8.70;99.90;;;;;;5057765;28;20227;-63
2022/11/25 08:20:41;;;;;;;9.20;2.88;;;8.80;99.90;;;;;;5057392;28;20029;-62
2022/11/25 08:23:06;;;;;;;8.80;2.70;;;8.80;99.90;;;;;;5057921;28;20098;-62
2022/11/25 08:25:32;;;;;;;9.50;3.40;;;8.90;99.90;;;;;;5057285;28;20033;-63
2022/11/25 08:27:58;;;;;;;11.50;3.10;;;8.90;99.90;;;;;;5057222;28;20029;-63
2022/11/25 08:30:25;;;;;;;10.32;2.75;;;8.90;99.90;;;;;;5057531;28;20040;-62
2022/11/25 08:32:52;;;;;;;11.43;2.95;;;8.90;99.90;;;;;;5057146;28;20080;-64
2022/11/25 08:35:18;;;;;;;12.35;3.20;;;8.90;99.90;;;;;;5057180;28;20025;-62
2022/11/25 08:37:45;;;;;;;12.48;3.17;;;8.90;99.90;;;;;;5057101;28;20145;-62
2022/11/25 08:40:11;;;;;;;12.57;3.40;;;8.90;99.90;;;;;;5040818;28;20373;-62
2022/11/25 08:42:38;;;;;;;10.05;2.58;;;9.00;99.90;;;;;;5057258;28;20144;-62
2022/11/25 08:45:05;;;;;;;11.52;2.70;;;9.00;99.90;;;;;;5056872;28;20033;-62
2022/11/25 08:47:31;;;;;;;11.80;2.78;;;9.10;99.90;;;;;;5057277;28;20025;-62
2022/11/25 08:49:57;;;;;;;13.63;2.78;;;9.10;99.90;;;;;;5040144;28;20091;-62
2022/11/25 08:52:23;;;;;;;8.90;2.40;;;9.10;99.90;;;;;;5057626;28;20037;-62
2022/11/25 08:54:49;;;;;;;9.95;2.75;;;9.00;99.90;;;;;;5057624;28;20025;-62
2022/11/25 08:57:15;;;;;;;10.25;2.75;;;9.10;99.90;;;;;;5056807;28;20037;-61
2022/11/25 08:59:41;;;;;;;10.63;2.78;;;9.00;99.90;;;;;;5056649;28;20288;-62
2022/11/25 09:02:08;;;;;;;12.27;2.47;;;9.10;99.90;;;;;;5056737;28;20401;-62
2022/11/25 09:04:34;;;;;;;9.60;3.17;;;9.10;99.90;;;;;;5039835;28;20044;-62
2022/11/25 09:07:02;;;;;;;9.30;2.80;;;9.10;99.90;;;;;;5057263;28;20044;-62
2022/11/25 09:09:29;;;;;;;10.50;3.17;;;9.20;99.90;;;;;;5056608;28;20447;-62
2022/11/25 09:11:55;;;;;;;16.05;3.38;;;9.30;99.90;;;;;;5056524;28;20013;-61
2022/11/25 09:14:21;;;;;;;11.30;3.00;;;9.30;99.90;;;;;;5056746;28;20025;-62
2022/11/25 09:16:46;;;;;;;10.93;2.92;;;9.30;99.90;;;;;;5057249;28;20029;-62
2022/11/25 09:19:12;;;;;;;13.10;2.67;;;9.30;99.90;;;;;;5057179;28;20089;-62
2022/11/25 09:21:38;;;;;;;10.88;2.70;;;9.40;99.90;;;;;;5056422;28;20049;-63
2022/11/25 09:24:04;;;;;;;10.13;2.33;;;9.40;99.90;;;;;;5057046;28;20393;-62
2022/11/25 09:26:34;;;;;;;10.30;2.50;;;9.40;99.90;;;;;;5056379;28;20112;-63
2022/11/25 09:29:00;;;;;;;13.48;2.65;;;9.40;99.90;;;;;;5056335;28;20335;-62
2022/11/25 09:31:26;;;;;;;11.07;2.47;;;9.50;99.90;;;;;;5039718;28;20025;-62
2022/11/25 09:33:52;;;;;;;8.23;3.25;;;9.60;99.90;;;;;;5056212;28;20349;-63
2022/11/25 09:36:19;;;;;;;9.05;2.53;;;9.50;99.90;;;;;;5056244;28;20369;-62
2022/11/25 09:38:46;;;;;;;11.73;2.55;;;9.60;99.90;;;;;;5056906;28;20073;-63
2022/11/25 09:47:41;;;;;;;6.20;2.28;;;10.00;99.90;;;;;;5056887;28;20029;-63
2022/11/25 09:50:40;;;;;;;4.10;2.10;;;10.30;99.90;;;;;;5056366;28;20025;-62
2022/11/25 09:53:25;;;;;;;6.55;2.25;;;10.60;99.90;;;;;;5056227;28;20033;-63
2022/11/25 09:55:57;;;;;;;10.95;2.30;;;10.50;99.90;;;;;;5059186;28;20423;-62
2022/11/25 09:58:43;;;;;;;7.25;2.28;;;10.60;99.90;;;;;;5060893;28;20308;-62
2022/11/25 10:01:18;;;;;;;7.57;2.17;;;10.90;99.90;;;;;;5060868;28;20032;-63
2022/11/25 10:03:51;;;;;;;6.63;2.00;;;11.20;99.90;;;;;;5059973;28;20403;-64
2022/11/25 10:06:31;;;;;;;8.48;2.17;;;11.20;99.90;;;;;;5060739;28;20044;-62
2022/11/25 10:09:00;;;;;;;5.63;1.90;;;11.30;99.90;;;;;;5059849;28;20041;-65
2022/11/25 10:11:50;;;;;;;8.05;2.35;;;11.50;99.90;;;;;;5059878;28;20040;-65
2022/11/25 10:14:31;;;;;;;8.65;2.63;;;11.50;99.90;;;;;;5059931;28;20300;-62
2022/11/25 10:17:14;;;;;;;5.20;1.95;;;11.60;99.90;;;;;;5059795;28;20319;-64
2022/11/25 10:20:06;;;;;;;8.52;2.00;;;11.60;99.90;;;;;;5059909;28;20059;-62
2022/11/25 10:22:35;;;;;;;8.55;2.20;;;11.60;99.90;;;;;;5060382;28;20043;-63
2022/11/25 10:25:19;;;;;;;6.30;2.00;;;11.80;99.90;;;;;;5059530;28;20031;-64
2022/11/25 10:27:55;;;;;;;7.30;1.77;;;12.10;99.90;;;;;;5042968;28;20040;-64
2022/11/25 10:30:22;;;;;;;5.88;1.75;;;12.50;99.90;;;;;;5059440;28;20029;-66
2022/11/25 10:33:19;;;;;;;5.78;1.70;;;13.20;99.90;;;;;;5059346;28;20043;-61
2022/11/25 10:36:06;;;;;;;5.88;1.50;;;13.40;99.90;;;;;;5059373;28;20347;-61
2022/11/25 10:38:40;;;;;;;5.25;1.70;;;13.40;99.90;;;;;;5059252;28;20033;-62
2022/11/25 10:41:10;;;;;;;6.15;1.83;;;13.20;99.90;;;;;;5042720;28;20295;-62
2022/11/25 10:43:36;;;;;;;5.60;1.75;;;13.30;99.90;;;;;;5059704;28;20068;-62
2022/11/25 10:46:31;;;;;;;6.65;1.70;;;12.90;99.90;;;;;;5059012;28;20321;-63
2022/11/25 10:49:05;;;;;;;4.15;1.23;;;12.90;99.90;;;;;;5059961;28;20376;-62
2022/11/25 10:51:43;;;;;;;6.82;1.88;;;13.40;99.90;;;;;;5059109;28;20074;-62
2022/11/25 10:54:21;;;;;;;5.50;1.70;;;14.10;99.90;;;;;;5059054;28;20053;-63
2022/11/25 10:56:52;;;;;;;6.72;1.60;;;14.60;99.90;;;;;;5059773;28;20025;-63
2022/11/25 10:59:23;;;;;;;5.70;1.50;;;14.50;99.90;;;;;;5059581;28;20044;-63
2022/11/25 11:01:51;;;;;;;5.13;1.40;;;13.60;99.90;;;;;;5058793;28;20138;-62
2022/11/25 11:04:17;;;;;;;6.18;1.70;;;13.50;99.90;;;;;;5059576;28;20056;-62
2022/11/25 11:06:48;;;;;;;6.05;1.80;;;13.30;99.90;;;;;;5058724;28;20041;-62
2022/11/25 11:09:41;;;;;;;5.22;1.42;;;13.60;99.90;;;;;;5058768;28;20037;-62
2022/11/25 11:12:19;;;;;;;;;;;13.30;99.90;;;;;;5059174;28;20052;-62
2022/11/25 11:14:45;;;;;;;5.88;1.45;;;13.10;99.90;;;;;;5059491;28;19909;-63
2022/11/25 11:17:31;;;;;;;6.18;1.55;;;12.90;99.90;;;;;;5059368;28;20084;-60
2022/11/25 11:20:09;;;;;;;10.27;2.00;;;12.80;99.90;;;;;;5059301;28;20155;-62
2022/11/25 11:22:43;;;;;;;5.80;2.05;;;12.90;99.90;;;;;;5058285;28;20335;-61
2022/11/25 11:25:26;;;;;;;8.38;1.58;;;12.90;99.90;;;;;;5059554;28;20028;-62
2022/11/25 11:27:52;;;;;;;9.57;2.25;;;12.90;99.90;;;;;;5041820;28;20036;-63
2022/11/25 11:30:24;;;;;;;6.90;1.45;;;12.60;99.90;;;;;;5059152;28;20100;-64
2022/11/25 11:33:04;;;;;;;6.90;1.52;;;12.60;99.90;;;;;;5058391;28;20300;-63
2022/11/25 11:35:49;;;;;;;8.50;2.00;;;12.70;99.90;;;;;;5041779;28;20033;-62
2022/11/25 11:38:46;;;;;;;7.25;1.88;;;12.60;99.90;;;;;;5059128;28;20043;-62
2022/11/25 11:41:26;;;;;;;10.77;2.20;;;12.60;99.90;;;;;;5049797;28;20041;-63
2022/11/25 11:44:06;;;;;;;9.15;1.73;;;12.70;99.90;;;;;;5058886;28;20082;-63
2022/11/25 11:46:38;;;;;;;10.85;2.10;;;12.70;99.90;;;;;;5058847;28;20061;-63
2022/11/25 11:49:13;;;;;;;10.10;1.83;;;12.80;99.90;;;;;;5059401;28;20035;-62
2022/11/25 11:52:10;;;;;;;6.38;1.90;;;12.70;99.90;;;;;;5057942;28;20029;-63
2022/11/25 11:54:47;;;;;;;5.82;1.50;;;13.00;99.90;;;;;;5059301;28;20300;-63
2022/11/25 11:57:40;;;;;;;6.05;1.60;;;13.10;99.90;;;;;;5058938;28;20045;-63
2022/11/25 12:00:11;;;;;;;6.90;1.63;;;13.00;99.90;;;;;;5057921;28;20404;-63
2022/11/25 12:03:18;;;;;;;8.13;1.80;;;12.90;99.90;;;;;;5058142;28;20033;-62
2022/11/25 12:05:46;;;;;;;5.88;1.60;;;12.80;99.90;;;;;;5057567;28;20045;-63
2022/11/25 12:08:38;;;;;;;7.75;1.75;;;13.00;99.90;;;;;;5058504;28;20052;-64
2022/11/25 12:11:16;;;;;;;9.05;1.90;;;12.90;99.90;;;;;;5058831;28;20060;-63
2022/11/25 12:13:54;;;;;;;8.02;1.40;;;13.00;99.90;;;;;;5057697;28;20025;-63
2022/11/25 12:16:50;;;;;;;6.57;1.70;;;13.20;99.90;;;;;;5057656;28;20389;-62
2022/11/25 12:19:38;;;;;;;13.77;2.38;;;13.10;99.90;;;;;;5058648;28;20320;-62
2022/11/25 12:22:21;;;;;;;9.68;1.95;;;13.20;99.90;;;;;;5058137;28;20040;-64
2022/11/25 12:24:56;;;;;;;11.30;2.05;;;13.20;99.90;;;;;;5040811;28;20104;-64
2022/11/25 12:27:32;;;;;;;10.13;1.80;;;13.00;99.90;;;;;;5058105;28;20029;-62
2022/11/25 12:30:19;;;;;;;9.10;2.00;;;13.30;99.90;;;;;;5057217;28;20029;-64
2022/11/25 12:33:03;;;;;;;10.82;2.72;;;13.30;99.90;;;;;;5057240;28;20057;-64
2022/11/25 12:35:44;;;;;;;9.82;1.90;;;13.30;99.90;;;;;;5057962;28;20025;-63
2022/11/25 12:38:17;;;;;;;10.52;2.17;;;13.30;99.90;;;;;;5056978;28;20396;-63
2022/11/25 12:41:12;;;;;;;8.43;2.20;;;13.20;99.90;;;;;;5057814;28;20041;-63
2022/11/25 12:43:54;;;;;;;8.35;2.03;;;13.40;99.90;;;;;;5040346;28;20033;-64
2022/11/25 12:46:44;;;;;;;10.35;2.15;;;13.50;99.90;;;;;;5056940;28;20296;-64
2022/11/25 12:49:27;;;;;;;10.23;2.00;;;13.50;99.90;;;;;;5056918;28;20024;-64
2022/11/25 12:52:28;;;;;;;12.98;2.55;;;13.50;99.90;;;;;;5057666;28;20091;-64
2022/11/25 12:55:04;;;;;;;9.70;2.05;;;13.70;99.90;;;;;;5058075;28;20092;-63
2022/11/25 12:58:11;;;;;;;9.10;2.10;;;13.80;99.90;;;;;;5057534;28;20385;-63
2022/11/25 13:01:02;;;;;;;10.25;2.13;;;13.80;99.90;;;;;;5057031;28;20040;-63
2022/11/25 13:04:14;;;;;;;12.90;2.13;;;13.80;99.90;;;;;;5056631;28;20033;-65
2022/11/25 13:06:53;;;;;;;7.65;1.80;;;13.70;99.90;;;;;;5056547;28;20353;-65
2022/11/25 13:09:27;;;;;;;11.85;2.38;;;13.70;99.90;;;;;;5056536;28;20389;-63
2022/11/25 13:12:11;;;;;;;9.45;2.00;;;13.60;99.90;;;;;;5057210;28;20025;-66
2022/11/25 13:14:49;;;;;;;12.45;2.28;;;13.80;99.90;;;;;;5057253;28;20036;-64
2022/11/25 13:17:15;;;;;;;10.25;2.20;;;14.00;99.90;;;;;;5057109;28;20108;-64
2022/11/25 13:19:41;;;;;;;9.90;1.88;;;13.80;99.90;;;;;;5057102;28;20033;-63
2022/11/25 13:22:19;;;;;;;11.57;2.30;;;13.70;99.90;;;;;;5057056;28;20037;-63
2022/11/25 13:24:45;;;;;;;12.23;2.45;;;13.60;99.90;;;;;;5057031;28;20021;-64